sensor_id;sensor_type;location;lat;lon;timestamp;P1;durP1;ratioP1;P2;durP2;ratioP2
79403;SDS011;68858;48.642;9.142;2024-02-16T00:01:00;6.03;;;3.57;;
79403;SDS011;68858;48.642;9.142;2024-02-16T00:03:26;5.53;;;3.90;;
79403;SDS011;68858;48.642;9.142;2024-02-16T00:05:52;4.40;;;3.57;;
79403;SDS011;68858;48.642;9.142;2024-02-16T00:08:18;3.70;;;3.40;;
79403;SDS011;68858;48.642;9.142;2024-02-16T00:10:44;6.90;;;4.20;;
79403;SDS011;68858;48.642;9.142;2024-02-16T00:13:09;4.30;;;3.67;;
79403;SDS011;68858;48.642;9.142;2024-02-16T00:15:37;5.33;;;3.97;;
79403;SDS011;68858;48.642;9.142;2024-02-16T00:18:06;5.47;;;4.10;;
79403;SDS011;68858;48.642;9.142;2024-02-16T00:20:31;5.00;;;3.93;;
79403;SDS011;68858;48.642;9.142;2024-02-16T00:22:57;5.63;;;4.07;;
79403;SDS011;68858;48.642;9.142;2024-02-16T00:25:23;4.40;;;3.50;;
79403;SDS011;68858;48.642;9.142;2024-02-16T00:27:49;4.27;;;3.80;;
79403;SDS011;68858;48.642;9.142;2024-02-16T00:30:16;5.00;;;3.60;;
79403;SDS011;68858;48.642;9.142;2024-02-16T00:32:43;3.83;;;3.33;;
79403;SDS011;68858;48.642;9.142;2024-02-16T00:35:10;4.10;;;3.50;;
79403;SDS011;68858;48.642;9.142;2024-02-16T00:37:36;4.97;;;3.90;;
79403;SDS011;68858;48.642;9.142;2024-02-16T00:40:03;4.03;;;3.53;;
79403;SDS011;68858;48.642;9.142;2024-02-16T00:42:29;3.97;;;3.47;;
79403;SDS011;68858;48.642;9.142;2024-02-16T00:44:56;4.23;;;3.50;;
79403;SDS011;68858;48.642;9.142;2024-02-16T00:47:22;4.37;;;3.67;;
79403;SDS011;68858;48.642;9.142;2024-02-16T00:49:48;3.97;;;3.57;;
79403;SDS011;68858;48.642;9.142;2024-02-16T00:52:14;3.80;;;3.50;;
79403;SDS011;68858;48.642;9.142;2024-02-16T00:54:40;3.80;;;3.50;;
79403;SDS011;68858;48.642;9.142;2024-02-16T00:57:05;4.30;;;3.37;;
79403;SDS011;68858;48.642;9.142;2024-02-16T00:59:31;4.30;;;3.57;;
79403;SDS011;68858;48.642;9.142;2024-02-16T01:01:56;5.17;;;3.50;;
79403;SDS011;68858;48.642;9.142;2024-02-16T01:04:22;4.23;;;3.40;;
79403;SDS011;68858;48.642;9.142;2024-02-16T01:06:48;4.40;;;3.30;;
79403;SDS011;68858;48.642;9.142;2024-02-16T01:09:13;5.97;;;3.67;;
79403;SDS011;68858;48.642;9.142;2024-02-16T01:11:42;3.77;;;3.27;;
79403;SDS011;68858;48.642;9.142;2024-02-16T01:14:08;4.07;;;3.17;;
79403;SDS011;68858;48.642;9.142;2024-02-16T01:16:33;4.10;;;3.70;;
79403;SDS011;68858;48.642;9.142;2024-02-16T01:19:00;3.97;;;3.53;;
79403;SDS011;68858;48.642;9.142;2024-02-16T01:21:25;3.97;;;3.47;;
79403;SDS011;68858;48.642;9.142;2024-02-16T01:23:51;4.00;;;3.37;;
79403;SDS011;68858;48.642;9.142;2024-02-16T01:26:17;4.20;;;3.70;;
79403;SDS011;68858;48.642;9.142;2024-02-16T01:28:42;4.53;;;3.43;;
79403;SDS011;68858;48.642;9.142;2024-02-16T01:31:07;5.80;;;4.10;;
79403;SDS011;68858;48.642;9.142;2024-02-16T01:33:36;4.83;;;3.37;;
79403;SDS011;68858;48.642;9.142;2024-02-16T01:36:02;4.10;;;3.20;;
79403;SDS011;68858;48.642;9.142;2024-02-16T01:38:28;4.03;;;3.63;;
79403;SDS011;68858;48.642;9.142;2024-02-16T01:40:53;4.30;;;3.90;;
79403;SDS011;68858;48.642;9.142;2024-02-16T01:43:22;4.30;;;3.60;;
79403;SDS011;68858;48.642;9.142;2024-02-16T01:45:48;4.37;;;3.63;;
79403;SDS011;68858;48.642;9.142;2024-02-16T01:48:16;4.03;;;3.63;;
79403;SDS011;68858;48.642;9.142;2024-02-16T01:50:44;4.33;;;3.80;;
79403;SDS011;68858;48.642;9.142;2024-02-16T01:53:11;6.07;;;4.40;;
79403;SDS011;68858;48.642;9.142;2024-02-16T01:55:36;5.63;;;4.17;;
79403;SDS011;68858;48.642;9.142;2024-02-16T01:58:02;4.17;;;3.77;;
79403;SDS011;68858;48.642;9.142;2024-02-16T02:00:28;5.03;;;3.70;;
79403;SDS011;68858;48.642;9.142;2024-02-16T02:02:53;5.17;;;3.47;;
79403;SDS011;68858;48.642;9.142;2024-02-16T02:05:19;5.73;;;4.10;;
79403;SDS011;68858;48.642;9.142;2024-02-16T02:07:44;5.07;;;3.93;;
79403;SDS011;68858;48.642;9.142;2024-02-16T02:10:10;5.03;;;3.87;;
79403;SDS011;68858;48.642;9.142;2024-02-16T02:12:38;4.20;;;3.40;;
79403;SDS011;68858;48.642;9.142;2024-02-16T02:15:05;5.33;;;3.87;;
79403;SDS011;68858;48.642;9.142;2024-02-16T02:17:30;5.77;;;3.90;;
79403;SDS011;68858;48.642;9.142;2024-02-16T02:19:56;4.60;;;3.57;;
79403;SDS011;68858;48.642;9.142;2024-02-16T02:22:21;4.80;;;3.80;;
79403;SDS011;68858;48.642;9.142;2024-02-16T02:24:47;4.53;;;3.53;;
79403;SDS011;68858;48.642;9.142;2024-02-16T02:27:14;4.43;;;3.67;;
79403;SDS011;68858;48.642;9.142;2024-02-16T02:29:40;4.00;;;3.60;;
79403;SDS011;68858;48.642;9.142;2024-02-16T02:32:06;3.63;;;3.30;;
79403;SDS011;68858;48.642;9.142;2024-02-16T02:34:32;4.30;;;3.33;;
79403;SDS011;68858;48.642;9.142;2024-02-16T02:36:58;4.60;;;3.37;;
79403;SDS011;68858;48.642;9.142;2024-02-16T02:39:23;3.87;;;3.30;;
79403;SDS011;68858;48.642;9.142;2024-02-16T02:41:49;5.17;;;3.47;;
79403;SDS011;68858;48.642;9.142;2024-02-16T02:44:15;3.50;;;3.17;;
79403;SDS011;68858;48.642;9.142;2024-02-16T02:46:40;4.57;;;3.93;;
79403;SDS011;68858;48.642;9.142;2024-02-16T02:49:06;4.60;;;3.70;;
79403;SDS011;68858;48.642;9.142;2024-02-16T02:51:31;5.67;;;3.20;;
79403;SDS011;68858;48.642;9.142;2024-02-16T02:53:57;4.13;;;2.70;;
79403;SDS011;68858;48.642;9.142;2024-02-16T02:56:23;3.43;;;2.80;;
79403;SDS011;68858;48.642;9.142;2024-02-16T02:58:49;5.10;;;3.03;;
79403;SDS011;68858;48.642;9.142;2024-02-16T03:01:14;5.70;;;3.10;;
79403;SDS011;68858;48.642;9.142;2024-02-16T03:03:40;3.70;;;3.20;;
79403;SDS011;68858;48.642;9.142;2024-02-16T03:06:06;3.37;;;3.07;;
79403;SDS011;68858;48.642;9.142;2024-02-16T03:08:32;5.27;;;3.13;;
79403;SDS011;68858;48.642;9.142;2024-02-16T03:10:57;4.13;;;3.03;;
79403;SDS011;68858;48.642;9.142;2024-02-16T03:13:26;3.53;;;2.93;;
79403;SDS011;68858;48.642;9.142;2024-02-16T03:15:51;4.23;;;3.60;;
79403;SDS011;68858;48.642;9.142;2024-02-16T03:18:18;6.50;;;3.50;;
79403;SDS011;68858;48.642;9.142;2024-02-16T03:20:45;4.03;;;3.17;;
79403;SDS011;68858;48.642;9.142;2024-02-16T03:23:14;4.23;;;3.40;;
79403;SDS011;68858;48.642;9.142;2024-02-16T03:25:39;4.63;;;3.37;;
79403;SDS011;68858;48.642;9.142;2024-02-16T03:28:05;5.07;;;3.30;;
79403;SDS011;68858;48.642;9.142;2024-02-16T03:30:31;4.53;;;3.23;;
79403;SDS011;68858;48.642;9.142;2024-02-16T03:32:57;4.27;;;3.23;;
79403;SDS011;68858;48.642;9.142;2024-02-16T03:35:23;3.47;;;3.17;;
79403;SDS011;68858;48.642;9.142;2024-02-16T03:37:49;4.03;;;3.50;;
79403;SDS011;68858;48.642;9.142;2024-02-16T03:40:14;3.70;;;3.40;;
79403;SDS011;68858;48.642;9.142;2024-02-16T03:42:40;4.10;;;3.70;;
79403;SDS011;68858;48.642;9.142;2024-02-16T03:45:06;3.57;;;3.20;;
79403;SDS011;68858;48.642;9.142;2024-02-16T03:47:32;3.67;;;3.17;;
79403;SDS011;68858;48.642;9.142;2024-02-16T03:49:58;5.57;;;3.90;;
79403;SDS011;68858;48.642;9.142;2024-02-16T03:52:24;5.50;;;3.77;;
79403;SDS011;68858;48.642;9.142;2024-02-16T03:54:49;4.03;;;3.50;;
79403;SDS011;68858;48.642;9.142;2024-02-16T03:57:15;6.13;;;5.53;;
79403;SDS011;68858;48.642;9.142;2024-02-16T03:59:44;8.17;;;4.50;;
79403;SDS011;68858;48.642;9.142;2024-02-16T04:02:10;6.40;;;3.90;;
79403;SDS011;68858;48.642;9.142;2024-02-16T04:04:39;4.83;;;3.67;;
79403;SDS011;68858;48.642;9.142;2024-02-16T04:07:04;4.13;;;3.70;;
79403;SDS011;68858;48.642;9.142;2024-02-16T04:09:32;4.13;;;3.50;;
79403;SDS011;68858;48.642;9.142;2024-02-16T04:11:58;4.07;;;3.67;;
79403;SDS011;68858;48.642;9.142;2024-02-16T04:14:23;5.60;;;3.60;;
79403;SDS011;68858;48.642;9.142;2024-02-16T04:16:48;5.43;;;3.67;;
79403;SDS011;68858;48.642;9.142;2024-02-16T04:19:14;4.03;;;3.63;;
79403;SDS011;68858;48.642;9.142;2024-02-16T04:21:39;4.50;;;3.23;;
79403;SDS011;68858;48.642;9.142;2024-02-16T04:24:06;5.60;;;3.30;;
79403;SDS011;68858;48.642;9.142;2024-02-16T04:26:31;4.40;;;3.70;;
79403;SDS011;68858;48.642;9.142;2024-02-16T04:28:57;5.07;;;3.70;;
79403;SDS011;68858;48.642;9.142;2024-02-16T04:31:22;4.70;;;3.60;;
79403;SDS011;68858;48.642;9.142;2024-02-16T04:33:47;4.47;;;3.90;;
79403;SDS011;68858;48.642;9.142;2024-02-16T04:36:13;5.40;;;4.00;;
79403;SDS011;68858;48.642;9.142;2024-02-16T04:38:40;3.97;;;3.37;;
79403;SDS011;68858;48.642;9.142;2024-02-16T04:41:06;4.17;;;3.83;;
79403;SDS011;68858;48.642;9.142;2024-02-16T04:43:32;4.93;;;4.00;;
79403;SDS011;68858;48.642;9.142;2024-02-16T04:45:57;3.67;;;3.37;;
79403;SDS011;68858;48.642;9.142;2024-02-16T04:48:23;6.53;;;4.70;;
79403;SDS011;68858;48.642;9.142;2024-02-16T04:50:48;6.90;;;3.60;;
79403;SDS011;68858;48.642;9.142;2024-02-16T04:53:14;3.80;;;3.47;;
79403;SDS011;68858;48.642;9.142;2024-02-16T04:55:39;4.87;;;4.30;;
79403;SDS011;68858;48.642;9.142;2024-02-16T04:58:05;8.57;;;4.40;;
79403;SDS011;68858;48.642;9.142;2024-02-16T05:00:37;4.53;;;4.03;;
79403;SDS011;68858;48.642;9.142;2024-02-16T05:03:03;7.03;;;4.20;;
79403;SDS011;68858;48.642;9.142;2024-02-16T05:05:28;4.33;;;3.93;;
79403;SDS011;68858;48.642;9.142;2024-02-16T05:07:55;3.93;;;3.50;;
79403;SDS011;68858;48.642;9.142;2024-02-16T05:10:21;4.40;;;3.60;;
79403;SDS011;68858;48.642;9.142;2024-02-16T05:12:46;4.13;;;3.33;;
79403;SDS011;68858;48.642;9.142;2024-02-16T05:15:12;4.40;;;3.60;;
79403;SDS011;68858;48.642;9.142;2024-02-16T05:17:38;3.80;;;3.40;;
79403;SDS011;68858;48.642;9.142;2024-02-16T05:20:08;5.67;;;3.60;;
79403;SDS011;68858;48.642;9.142;2024-02-16T05:22:35;7.83;;;3.83;;
79403;SDS011;68858;48.642;9.142;2024-02-16T05:25:00;4.33;;;3.80;;
79403;SDS011;68858;48.642;9.142;2024-02-16T05:27:26;3.93;;;3.23;;
79403;SDS011;68858;48.642;9.142;2024-02-16T05:29:51;4.43;;;3.53;;
79403;SDS011;68858;48.642;9.142;2024-02-16T05:32:17;4.33;;;3.20;;
79403;SDS011;68858;48.642;9.142;2024-02-16T05:34:42;4.80;;;3.53;;
79403;SDS011;68858;48.642;9.142;2024-02-16T05:37:08;3.87;;;3.47;;
79403;SDS011;68858;48.642;9.142;2024-02-16T05:39:36;5.23;;;3.47;;
79403;SDS011;68858;48.642;9.142;2024-02-16T05:42:08;5.00;;;3.70;;
79403;SDS011;68858;48.642;9.142;2024-02-16T05:44:34;4.37;;;3.57;;
79403;SDS011;68858;48.642;9.142;2024-02-16T05:47:00;3.63;;;3.33;;
79403;SDS011;68858;48.642;9.142;2024-02-16T05:49:25;7.03;;;3.90;;
79403;SDS011;68858;48.642;9.142;2024-02-16T05:51:50;5.27;;;3.50;;
79403;SDS011;68858;48.642;9.142;2024-02-16T05:54:40;4.23;;;3.33;;
79403;SDS011;68858;48.642;9.142;2024-02-16T05:57:06;5.50;;;3.43;;
79403;SDS011;68858;48.642;9.142;2024-02-16T05:59:34;3.43;;;3.10;;
79403;SDS011;68858;48.642;9.142;2024-02-16T06:02:00;4.30;;;3.57;;
79403;SDS011;68858;48.642;9.142;2024-02-16T06:04:26;4.73;;;3.90;;
79403;SDS011;68858;48.642;9.142;2024-02-16T06:06:51;6.33;;;3.97;;
79403;SDS011;68858;48.642;9.142;2024-02-16T06:09:18;4.90;;;3.83;;
79403;SDS011;68858;48.642;9.142;2024-02-16T06:11:44;6.13;;;4.80;;
79403;SDS011;68858;48.642;9.142;2024-02-16T06:14:09;8.67;;;4.97;;
79403;SDS011;68858;48.642;9.142;2024-02-16T06:16:35;5.97;;;4.37;;
79403;SDS011;68858;48.642;9.142;2024-02-16T06:19:00;5.47;;;4.30;;
79403;SDS011;68858;48.642;9.142;2024-02-16T06:21:26;4.83;;;4.27;;
79403;SDS011;68858;48.642;9.142;2024-02-16T06:23:51;6.17;;;3.90;;
79403;SDS011;68858;48.642;9.142;2024-02-16T06:26:17;5.40;;;4.07;;
79403;SDS011;68858;48.642;9.142;2024-02-16T06:28:42;4.90;;;4.10;;
79403;SDS011;68858;48.642;9.142;2024-02-16T06:31:07;5.80;;;4.50;;
79403;SDS011;68858;48.642;9.142;2024-02-16T06:33:33;4.40;;;4.00;;
79403;SDS011;68858;48.642;9.142;2024-02-16T06:35:58;5.37;;;4.50;;
79403;SDS011;68858;48.642;9.142;2024-02-16T06:38:23;7.00;;;4.07;;
79403;SDS011;68858;48.642;9.142;2024-02-16T06:40:49;4.80;;;4.13;;
79403;SDS011;68858;48.642;9.142;2024-02-16T06:43:14;4.93;;;4.20;;
79403;SDS011;68858;48.642;9.142;2024-02-16T06:45:40;7.40;;;3.60;;
79403;SDS011;68858;48.642;9.142;2024-02-16T06:48:06;3.73;;;3.30;;
79403;SDS011;68858;48.642;9.142;2024-02-16T06:50:32;5.30;;;3.57;;
79403;SDS011;68858;48.642;9.142;2024-02-16T06:52:57;4.53;;;3.67;;
79403;SDS011;68858;48.642;9.142;2024-02-16T06:55:22;5.17;;;3.60;;
79403;SDS011;68858;48.642;9.142;2024-02-16T06:57:49;4.60;;;3.53;;
79403;SDS011;68858;48.642;9.142;2024-02-16T07:00:16;4.10;;;3.43;;
79403;SDS011;68858;48.642;9.142;2024-02-16T07:02:42;3.73;;;3.10;;
79403;SDS011;68858;48.642;9.142;2024-02-16T07:05:08;3.70;;;2.90;;
79403;SDS011;68858;48.642;9.142;2024-02-16T07:07:33;3.40;;;2.87;;
79403;SDS011;68858;48.642;9.142;2024-02-16T07:10:01;3.93;;;3.23;;
79403;SDS011;68858;48.642;9.142;2024-02-16T07:12:27;3.80;;;2.83;;
79403;SDS011;68858;48.642;9.142;2024-02-16T07:14:53;4.27;;;2.93;;
79403;SDS011;68858;48.642;9.142;2024-02-16T07:17:18;3.10;;;2.60;;
79403;SDS011;68858;48.642;9.142;2024-02-16T07:19:44;2.63;;;2.37;;
79403;SDS011;68858;48.642;9.142;2024-02-16T07:22:09;2.93;;;2.20;;
79403;SDS011;68858;48.642;9.142;2024-02-16T07:24:37;3.90;;;2.43;;
79403;SDS011;68858;48.642;9.142;2024-02-16T07:27:03;3.07;;;2.77;;
79403;SDS011;68858;48.642;9.142;2024-02-16T07:29:28;3.87;;;3.30;;
79403;SDS011;68858;48.642;9.142;2024-02-16T07:31:54;3.90;;;3.47;;
79403;SDS011;68858;48.642;9.142;2024-02-16T07:34:20;2.73;;;2.50;;
79403;SDS011;68858;48.642;9.142;2024-02-16T07:36:46;3.47;;;2.50;;
79403;SDS011;68858;48.642;9.142;2024-02-16T07:39:11;3.00;;;2.60;;
79403;SDS011;68858;48.642;9.142;2024-02-16T07:41:37;3.80;;;2.50;;
79403;SDS011;68858;48.642;9.142;2024-02-16T07:44:04;3.17;;;2.20;;
79403;SDS011;68858;48.642;9.142;2024-02-16T07:46:29;2.87;;;2.60;;
79403;SDS011;68858;48.642;9.142;2024-02-16T07:48:55;2.23;;;2.00;;
79403;SDS011;68858;48.642;9.142;2024-02-16T07:51:20;3.17;;;2.33;;
79403;SDS011;68858;48.642;9.142;2024-02-16T07:53:46;3.43;;;2.43;;
79403;SDS011;68858;48.642;9.142;2024-02-16T07:56:12;3.27;;;2.20;;
79403;SDS011;68858;48.642;9.142;2024-02-16T07:58:37;2.67;;;2.07;;
79403;SDS011;68858;48.642;9.142;2024-02-16T08:01:03;2.17;;;1.90;;
79403;SDS011;68858;48.642;9.142;2024-02-16T08:03:28;3.33;;;2.20;;
79403;SDS011;68858;48.642;9.142;2024-02-16T08:05:54;2.20;;;2.00;;
79403;SDS011;68858;48.642;9.142;2024-02-16T08:08:21;2.20;;;2.00;;
79403;SDS011;68858;48.642;9.142;2024-02-16T08:10:48;2.20;;;2.00;;
79403;SDS011;68858;48.642;9.142;2024-02-16T08:13:13;2.70;;;2.20;;
79403;SDS011;68858;48.642;9.142;2024-02-16T08:15:38;2.30;;;2.10;;
79403;SDS011;68858;48.642;9.142;2024-02-16T08:18:04;3.80;;;2.10;;
79403;SDS011;68858;48.642;9.142;2024-02-16T08:20:30;2.60;;;2.20;;
79403;SDS011;68858;48.642;9.142;2024-02-16T08:22:55;2.50;;;2.07;;
79403;SDS011;68858;48.642;9.142;2024-02-16T08:25:21;2.80;;;2.43;;
79403;SDS011;68858;48.642;9.142;2024-02-16T08:27:47;3.30;;;2.20;;
79403;SDS011;68858;48.642;9.142;2024-02-16T08:30:14;2.30;;;2.10;;
79403;SDS011;68858;48.642;9.142;2024-02-16T08:32:40;5.50;;;2.00;;
79403;SDS011;68858;48.642;9.142;2024-02-16T08:35:06;3.50;;;2.33;;
79403;SDS011;68858;48.642;9.142;2024-02-16T08:37:33;2.47;;;1.80;;
79403;SDS011;68858;48.642;9.142;2024-02-16T08:39:58;2.20;;;2.00;;
79403;SDS011;68858;48.642;9.142;2024-02-16T08:42:24;2.30;;;1.90;;
79403;SDS011;68858;48.642;9.142;2024-02-16T08:44:49;1.80;;;1.60;;
79403;SDS011;68858;48.642;9.142;2024-02-16T08:47:15;3.50;;;1.90;;
79403;SDS011;68858;48.642;9.142;2024-02-16T08:49:41;2.30;;;2.10;;
79403;SDS011;68858;48.642;9.142;2024-02-16T08:52:07;2.87;;;2.20;;
79403;SDS011;68858;48.642;9.142;2024-02-16T08:54:32;4.80;;;2.53;;
79403;SDS011;68858;48.642;9.142;2024-02-16T08:56:58;2.23;;;1.90;;
79403;SDS011;68858;48.642;9.142;2024-02-16T08:59:24;2.30;;;1.90;;
79403;SDS011;68858;48.642;9.142;2024-02-16T09:01:50;4.40;;;1.90;;
79403;SDS011;68858;48.642;9.142;2024-02-16T09:04:15;1.90;;;1.70;;
79403;SDS011;68858;48.642;9.142;2024-02-16T09:06:41;2.97;;;1.80;;
79403;SDS011;68858;48.642;9.142;2024-02-16T09:09:07;2.23;;;2.03;;
79403;SDS011;68858;48.642;9.142;2024-02-16T09:11:32;2.43;;;1.87;;
79403;SDS011;68858;48.642;9.142;2024-02-16T09:13:58;2.40;;;1.80;;
79403;SDS011;68858;48.642;9.142;2024-02-16T09:16:24;1.63;;;1.53;;
79403;SDS011;68858;48.642;9.142;2024-02-16T09:18:49;2.57;;;1.60;;
79403;SDS011;68858;48.642;9.142;2024-02-16T09:21:15;1.90;;;1.50;;
79403;SDS011;68858;48.642;9.142;2024-02-16T09:23:40;1.90;;;1.50;;
79403;SDS011;68858;48.642;9.142;2024-02-16T09:26:06;1.80;;;1.53;;
79403;SDS011;68858;48.642;9.142;2024-02-16T09:28:38;1.90;;;1.40;;
79403;SDS011;68858;48.642;9.142;2024-02-16T09:31:04;1.93;;;1.63;;
79403;SDS011;68858;48.642;9.142;2024-02-16T09:33:29;3.10;;;1.50;;
79403;SDS011;68858;48.642;9.142;2024-02-16T09:35:54;1.87;;;1.30;;
79403;SDS011;68858;48.642;9.142;2024-02-16T09:38:20;2.17;;;1.60;;
79403;SDS011;68858;48.642;9.142;2024-02-16T09:40:45;1.50;;;1.40;;
79403;SDS011;68858;48.642;9.142;2024-02-16T09:43:22;1.90;;;1.70;;
79403;SDS011;68858;48.642;9.142;2024-02-16T09:45:52;2.57;;;1.60;;
79403;SDS011;68858;48.642;9.142;2024-02-16T09:48:18;3.83;;;1.70;;
79403;SDS011;68858;48.642;9.142;2024-02-16T09:50:45;3.37;;;1.63;;
79403;SDS011;68858;48.642;9.142;2024-02-16T09:53:11;1.60;;;1.50;;
79403;SDS011;68858;48.642;9.142;2024-02-16T09:55:38;1.67;;;1.47;;
79403;SDS011;68858;48.642;9.142;2024-02-16T09:58:04;1.77;;;1.40;;
79403;SDS011;68858;48.642;9.142;2024-02-16T10:00:30;2.80;;;1.27;;
79403;SDS011;68858;48.642;9.142;2024-02-16T10:02:55;4.00;;;1.60;;
79403;SDS011;68858;48.642;9.142;2024-02-16T10:05:21;1.27;;;1.17;;
79403;SDS011;68858;48.642;9.142;2024-02-16T10:07:47;1.60;;;1.20;;
79403;SDS011;68858;48.642;9.142;2024-02-16T10:10:25;2.67;;;1.30;;
79403;SDS011;68858;48.642;9.142;2024-02-16T10:13:02;2.07;;;1.20;;
79403;SDS011;68858;48.642;9.142;2024-02-16T10:15:32;1.87;;;1.50;;
79403;SDS011;68858;48.642;9.142;2024-02-16T10:18:01;1.30;;;1.20;;
79403;SDS011;68858;48.642;9.142;2024-02-16T10:20:28;2.10;;;1.40;;
79403;SDS011;68858;48.642;9.142;2024-02-16T10:25:35;2.43;;;1.53;;
79403;SDS011;68858;48.642;9.142;2024-02-16T10:28:05;3.33;;;1.70;;
79403;SDS011;68858;48.642;9.142;2024-02-16T10:30:34;1.73;;;1.60;;
79403;SDS011;68858;48.642;9.142;2024-02-16T10:33:02;2.90;;;1.50;;
79403;SDS011;68858;48.642;9.142;2024-02-16T10:35:28;2.37;;;1.53;;
79403;SDS011;68858;48.642;9.142;2024-02-16T10:37:55;2.90;;;1.60;;
79403;SDS011;68858;48.642;9.142;2024-02-16T10:40:23;1.80;;;1.57;;
79403;SDS011;68858;48.642;9.142;2024-02-16T10:42:51;2.00;;;1.70;;
79403;SDS011;68858;48.642;9.142;2024-02-16T10:45:17;2.73;;;1.50;;
79403;SDS011;68858;48.642;9.142;2024-02-16T10:47:44;2.00;;;1.80;;
79403;SDS011;68858;48.642;9.142;2024-02-16T10:50:10;2.27;;;1.90;;
79403;SDS011;68858;48.642;9.142;2024-02-16T10:52:36;3.20;;;1.93;;
79403;SDS011;68858;48.642;9.142;2024-02-16T10:55:05;3.40;;;1.90;;
79403;SDS011;68858;48.642;9.142;2024-02-16T10:57:31;3.27;;;1.87;;
79403;SDS011;68858;48.642;9.142;2024-02-16T10:59:58;3.57;;;1.97;;
79403;SDS011;68858;48.642;9.142;2024-02-16T11:02:24;3.13;;;1.70;;
79403;SDS011;68858;48.642;9.142;2024-02-16T11:04:51;2.60;;;2.00;;
79403;SDS011;68858;48.642;9.142;2024-02-16T11:07:17;2.30;;;1.50;;
79403;SDS011;68858;48.642;9.142;2024-02-16T11:09:44;4.23;;;1.80;;
79403;SDS011;68858;48.642;9.142;2024-02-16T11:12:12;4.10;;;1.73;;
79403;SDS011;68858;48.642;9.142;2024-02-16T11:14:38;2.30;;;1.70;;
79403;SDS011;68858;48.642;9.142;2024-02-16T11:17:09;1.90;;;1.80;;
79403;SDS011;68858;48.642;9.142;2024-02-16T11:19:42;3.30;;;1.77;;
79403;SDS011;68858;48.642;9.142;2024-02-16T11:22:14;2.33;;;1.50;;
79403;SDS011;68858;48.642;9.142;2024-02-16T11:24:47;1.60;;;1.50;;
79403;SDS011;68858;48.642;9.142;2024-02-16T11:27:13;2.57;;;1.70;;
79403;SDS011;68858;48.642;9.142;2024-02-16T11:29:46;2.17;;;1.60;;
79403;SDS011;68858;48.642;9.142;2024-02-16T11:32:12;1.63;;;1.53;;
79403;SDS011;68858;48.642;9.142;2024-02-16T11:34:37;2.10;;;1.60;;
79403;SDS011;68858;48.642;9.142;2024-02-16T11:37:03;1.93;;;1.60;;
79403;SDS011;68858;48.642;9.142;2024-02-16T11:39:30;2.00;;;1.80;;
79403;SDS011;68858;48.642;9.142;2024-02-16T11:42:00;3.10;;;1.80;;
79403;SDS011;68858;48.642;9.142;2024-02-16T11:44:39;3.03;;;1.63;;
79403;SDS011;68858;48.642;9.142;2024-02-16T11:47:06;2.50;;;1.43;;
79403;SDS011;68858;48.642;9.142;2024-02-16T11:49:42;6.03;;;2.10;;
79403;SDS011;68858;48.642;9.142;2024-02-16T11:52:07;2.90;;;1.80;;
79403;SDS011;68858;48.642;9.142;2024-02-16T11:54:33;2.70;;;1.50;;
79403;SDS011;68858;48.642;9.142;2024-02-16T11:56:59;1.77;;;1.57;;
79403;SDS011;68858;48.642;9.142;2024-02-16T11:59:25;2.80;;;1.83;;
79403;SDS011;68858;48.642;9.142;2024-02-16T12:01:51;2.80;;;1.60;;
79403;SDS011;68858;48.642;9.142;2024-02-16T12:04:27;2.00;;;1.63;;
79403;SDS011;68858;48.642;9.142;2024-02-16T12:06:58;2.73;;;1.80;;
79403;SDS011;68858;48.642;9.142;2024-02-16T12:09:24;1.43;;;1.33;;
79403;SDS011;68858;48.642;9.142;2024-02-16T12:11:50;1.77;;;1.57;;
79403;SDS011;68858;48.642;9.142;2024-02-16T12:14:18;4.20;;;1.93;;
79403;SDS011;68858;48.642;9.142;2024-02-16T12:16:49;1.70;;;1.40;;
79403;SDS011;68858;48.642;9.142;2024-02-16T12:19:23;4.03;;;1.70;;
79403;SDS011;68858;48.642;9.142;2024-02-16T12:21:49;1.60;;;1.33;;
79403;SDS011;68858;48.642;9.142;2024-02-16T12:24:16;1.50;;;1.20;;
79403;SDS011;68858;48.642;9.142;2024-02-16T12:26:42;2.70;;;1.60;;
79403;SDS011;68858;48.642;9.142;2024-02-16T12:29:07;1.73;;;1.40;;
79403;SDS011;68858;48.642;9.142;2024-02-16T12:31:37;2.63;;;1.60;;
79403;SDS011;68858;48.642;9.142;2024-02-16T12:34:03;2.87;;;1.70;;
79403;SDS011;68858;48.642;9.142;2024-02-16T12:36:30;2.80;;;1.40;;
79403;SDS011;68858;48.642;9.142;2024-02-16T12:38:55;6.27;;;2.13;;
79403;SDS011;68858;48.642;9.142;2024-02-16T12:41:21;2.53;;;1.50;;
79403;SDS011;68858;48.642;9.142;2024-02-16T12:43:47;3.43;;;2.10;;
79403;SDS011;68858;48.642;9.142;2024-02-16T12:46:12;2.67;;;1.60;;
79403;SDS011;68858;48.642;9.142;2024-02-16T12:48:38;2.00;;;1.60;;
79403;SDS011;68858;48.642;9.142;2024-02-16T12:51:04;2.47;;;1.57;;
79403;SDS011;68858;48.642;9.142;2024-02-16T12:53:30;3.60;;;1.90;;
79403;SDS011;68858;48.642;9.142;2024-02-16T12:56:08;3.80;;;1.97;;
79403;SDS011;68858;48.642;9.142;2024-02-16T12:58:35;2.20;;;1.70;;
79403;SDS011;68858;48.642;9.142;2024-02-16T13:01:00;2.70;;;1.80;;
79403;SDS011;68858;48.642;9.142;2024-02-16T13:03:27;2.50;;;1.77;;
79403;SDS011;68858;48.642;9.142;2024-02-16T13:05:53;2.17;;;1.60;;
79403;SDS011;68858;48.642;9.142;2024-02-16T13:08:19;3.87;;;1.77;;
79403;SDS011;68858;48.642;9.142;2024-02-16T13:10:44;2.97;;;1.77;;
79403;SDS011;68858;48.642;9.142;2024-02-16T13:13:09;5.50;;;1.93;;
79403;SDS011;68858;48.642;9.142;2024-02-16T13:15:35;3.83;;;2.00;;
79403;SDS011;68858;48.642;9.142;2024-02-16T13:18:01;2.83;;;2.00;;
79403;SDS011;68858;48.642;9.142;2024-02-16T13:20:26;3.40;;;1.80;;
79403;SDS011;68858;48.642;9.142;2024-02-16T13:22:52;2.43;;;1.70;;
79403;SDS011;68858;48.642;9.142;2024-02-16T13:25:19;3.67;;;1.93;;
79403;SDS011;68858;48.642;9.142;2024-02-16T13:27:44;2.83;;;1.90;;
79403;SDS011;68858;48.642;9.142;2024-02-16T13:30:10;2.27;;;1.70;;
79403;SDS011;68858;48.642;9.142;2024-02-16T13:32:36;3.20;;;1.80;;
79403;SDS011;68858;48.642;9.142;2024-02-16T13:35:07;2.53;;;1.70;;
79403;SDS011;68858;48.642;9.142;2024-02-16T13:37:33;2.40;;;1.80;;
79403;SDS011;68858;48.642;9.142;2024-02-16T13:39:58;2.53;;;1.70;;
79403;SDS011;68858;48.642;9.142;2024-02-16T13:42:24;2.47;;;1.80;;
79403;SDS011;68858;48.642;9.142;2024-02-16T13:44:51;3.43;;;1.80;;
79403;SDS011;68858;48.642;9.142;2024-02-16T13:47:16;4.63;;;2.10;;
79403;SDS011;68858;48.642;9.142;2024-02-16T13:49:42;4.03;;;1.67;;
79403;SDS011;68858;48.642;9.142;2024-02-16T13:52:07;5.27;;;1.90;;
79403;SDS011;68858;48.642;9.142;2024-02-16T13:54:33;1.70;;;1.60;;
79403;SDS011;68858;48.642;9.142;2024-02-16T13:57:00;4.27;;;1.90;;
79403;SDS011;68858;48.642;9.142;2024-02-16T13:59:26;2.77;;;1.67;;
79403;SDS011;68858;48.642;9.142;2024-02-16T14:01:53;4.03;;;2.37;;
79403;SDS011;68858;48.642;9.142;2024-02-16T14:04:18;5.60;;;3.10;;
79403;SDS011;68858;48.642;9.142;2024-02-16T14:06:45;7.53;;;5.70;;
79403;SDS011;68858;48.642;9.142;2024-02-16T14:09:10;4.73;;;2.20;;
79403;SDS011;68858;48.642;9.142;2024-02-16T14:11:39;4.10;;;1.90;;
79403;SDS011;68858;48.642;9.142;2024-02-16T14:14:06;3.77;;;1.83;;
79403;SDS011;68858;48.642;9.142;2024-02-16T14:16:32;3.07;;;1.80;;
79403;SDS011;68858;48.642;9.142;2024-02-16T14:18:58;4.13;;;1.80;;
79403;SDS011;68858;48.642;9.142;2024-02-16T14:21:23;5.83;;;2.20;;
79403;SDS011;68858;48.642;9.142;2024-02-16T14:23:49;3.70;;;1.90;;
79403;SDS011;68858;48.642;9.142;2024-02-16T14:26:14;3.87;;;1.87;;
79403;SDS011;68858;48.642;9.142;2024-02-16T14:28:39;3.93;;;2.13;;
79403;SDS011;68858;48.642;9.142;2024-02-16T14:31:05;3.43;;;2.13;;
79403;SDS011;68858;48.642;9.142;2024-02-16T14:33:31;5.07;;;2.07;;
79403;SDS011;68858;48.642;9.142;2024-02-16T14:35:57;3.83;;;2.20;;
79403;SDS011;68858;48.642;9.142;2024-02-16T14:38:23;4.53;;;2.10;;
79403;SDS011;68858;48.642;9.142;2024-02-16T14:40:49;5.93;;;2.60;;
79403;SDS011;68858;48.642;9.142;2024-02-16T14:43:14;4.53;;;2.40;;
79403;SDS011;68858;48.642;9.142;2024-02-16T14:45:39;5.23;;;2.30;;